sensor_id;sensor_type;location;lat;lon;timestamp;temperature;humidity
17442;DHT22;8838;50.144;8.176;2023-05-07T00:00:46;13.70;99.90
17442;DHT22;8838;50.144;8.176;2023-05-07T00:03:13;13.60;99.90
17442;DHT22;8838;50.144;8.176;2023-05-07T00:05:40;13.60;99.90
17442;DHT22;8838;50.144;8.176;2023-05-07T00:08:07;13.60;99.90
17442;DHT22;8838;50.144;8.176;2023-05-07T00:10:34;13.60;99.90
17442;DHT22;8838;50.144;8.176;2023-05-07T00:13:01;13.50;99.90
17442;DHT22;8838;50.144;8.176;2023-05-07T00:15:28;13.50;99.90
17442;DHT22;8838;50.144;8.176;2023-05-07T00:17:56;13.50;99.90
17442;DHT22;8838;50.144;8.176;2023-05-07T00:20:24;13.60;99.90
17442;DHT22;8838;50.144;8.176;2023-05-07T00:22:50;13.50;99.90
17442;DHT22;8838;50.144;8.176;2023-05-07T00:25:18;13.50;99.90
17442;DHT22;8838;50.144;8.176;2023-05-07T00:27:46;13.50;99.90
17442;DHT22;8838;50.144;8.176;2023-05-07T00:30:13;13.40;99.90
17442;DHT22;8838;50.144;8.176;2023-05-07T00:32:40;13.50;99.90
17442;DHT22;8838;50.144;8.176;2023-05-07T00:35:09;13.40;99.90
17442;DHT22;8838;50.144;8.176;2023-05-07T00:37:35;13.30;99.90
17442;DHT22;8838;50.144;8.176;2023-05-07T00:40:03;13.30;99.90
17442;DHT22;8838;50.144;8.176;2023-05-07T00:42:32;13.20;99.90
17442;DHT22;8838;50.144;8.176;2023-05-07T00:44:59;13.20;99.90
17442;DHT22;8838;50.144;8.176;2023-05-07T00:47:26;13.20;99.90
17442;DHT22;8838;50.144;8.176;2023-05-07T00:49:53;13.20;99.90
17442;DHT22;8838;50.144;8.176;2023-05-07T00:52:22;13.20;99.90
17442;DHT22;8838;50.144;8.176;2023-05-07T00:54:50;13.20;99.90
17442;DHT22;8838;50.144;8.176;2023-05-07T00:57:17;13.20;99.90
17442;DHT22;8838;50.144;8.176;2023-05-07T00:59:44;13.30;99.90
17442;DHT22;8838;50.144;8.176;2023-05-07T01:02:11;13.30;99.90
17442;DHT22;8838;50.144;8.176;2023-05-07T01:04:37;13.20;99.90
17442;DHT22;8838;50.144;8.176;2023-05-07T01:07:05;13.20;99.90
17442;DHT22;8838;50.144;8.176;2023-05-07T01:09:34;13.20;99.90
17442;DHT22;8838;50.144;8.176;2023-05-07T01:12:03;13.20;99.90
17442;DHT22;8838;50.144;8.176;2023-05-07T01:14:31;13.20;99.90
17442;DHT22;8838;50.144;8.176;2023-05-07T01:16:58;13.30;99.90
17442;DHT22;8838;50.144;8.176;2023-05-07T01:19:25;13.30;99.90
17442;DHT22;8838;50.144;8.176;2023-05-07T01:22:07;13.40;99.90
17442;DHT22;8838;50.144;8.176;2023-05-07T01:24:36;13.40;99.90
17442;DHT22;8838;50.144;8.176;2023-05-07T01:27:03;13.40;99.90
17442;DHT22;8838;50.144;8.176;2023-05-07T01:29:30;13.40;99.90
17442;DHT22;8838;50.144;8.176;2023-05-07T01:31:58;13.50;99.90
17442;DHT22;8838;50.144;8.176;2023-05-07T01:34:26;13.50;99.90
17442;DHT22;8838;50.144;8.176;2023-05-07T01:36:55;13.50;99.90
17442;DHT22;8838;50.144;8.176;2023-05-07T01:39:24;13.50;99.90
17442;DHT22;8838;50.144;8.176;2023-05-07T01:41:54;13.30;99.90
17442;DHT22;8838;50.144;8.176;2023-05-07T01:44:21;13.20;99.90
17442;DHT22;8838;50.144;8.176;2023-05-07T01:46:48;13.30;99.90
17442;DHT22;8838;50.144;8.176;2023-05-07T01:49:16;13.40;99.90
17442;DHT22;8838;50.144;8.176;2023-05-07T01:51:43;13.40;99.90
17442;DHT22;8838;50.144;8.176;2023-05-07T01:54:10;13.40;99.90
17442;DHT22;8838;50.144;8.176;2023-05-07T01:56:37;13.30;99.90
17442;DHT22;8838;50.144;8.176;2023-05-07T01:59:05;13.20;99.90
17442;DHT22;8838;50.144;8.176;2023-05-07T02:01:32;13.10;99.90
17442;DHT22;8838;50.144;8.176;2023-05-07T02:03:59;13.10;99.90
17442;DHT22;8838;50.144;8.176;2023-05-07T02:06:25;13.10;99.90
17442;DHT22;8838;50.144;8.176;2023-05-07T02:08:52;13.10;99.90
17442;DHT22;8838;50.144;8.176;2023-05-07T02:11:19;13.10;99.90
17442;DHT22;8838;50.144;8.176;2023-05-07T02:13:46;13.10;99.90
17442;DHT22;8838;50.144;8.176;2023-05-07T02:16:14;13.20;99.90
17442;DHT22;8838;50.144;8.176;2023-05-07T02:18:41;13.20;99.90
17442;DHT22;8838;50.144;8.176;2023-05-07T02:21:08;13.20;99.90
17442;DHT22;8838;50.144;8.176;2023-05-07T02:23:35;13.20;99.90
17442;DHT22;8838;50.144;8.176;2023-05-07T02:26:04;13.20;99.90
17442;DHT22;8838;50.144;8.176;2023-05-07T02:28:31;13.20;99.90
17442;DHT22;8838;50.144;8.176;2023-05-07T02:31:01;13.20;99.90
17442;DHT22;8838;50.144;8.176;2023-05-07T02:33:30;13.20;99.90
17442;DHT22;8838;50.144;8.176;2023-05-07T02:35:56;13.20;99.90
17442;DHT22;8838;50.144;8.176;2023-05-07T02:38:23;13.20;99.90
17442;DHT22;8838;50.144;8.176;2023-05-07T02:40:50;13.30;99.90
17442;DHT22;8838;50.144;8.176;2023-05-07T02:43:17;13.50;99.90
17442;DHT22;8838;50.144;8.176;2023-05-07T02:45:44;13.60;99.90
17442;DHT22;8838;50.144;8.176;2023-05-07T02:48:10;13.50;99.90
17442;DHT22;8838;50.144;8.176;2023-05-07T02:50:39;13.30;99.90
17442;DHT22;8838;50.144;8.176;2023-05-07T02:53:06;13.20;99.90
17442;DHT22;8838;50.144;8.176;2023-05-07T02:55:33;13.10;99.90
17442;DHT22;8838;50.144;8.176;2023-05-07T02:57:59;13.10;99.90
17442;DHT22;8838;50.144;8.176;2023-05-07T03:00:26;13.20;99.90
17442;DHT22;8838;50.144;8.176;2023-05-07T03:02:53;13.10;99.90
17442;DHT22;8838;50.144;8.176;2023-05-07T03:05:20;13.00;99.90
17442;DHT22;8838;50.144;8.176;2023-05-07T03:07:48;13.00;99.90
17442;DHT22;8838;50.144;8.176;2023-05-07T03:10:14;13.00;99.90
17442;DHT22;8838;50.144;8.176;2023-05-07T03:12:41;12.90;99.90
17442;DHT22;8838;50.144;8.176;2023-05-07T03:15:09;13.00;99.90
17442;DHT22;8838;50.144;8.176;2023-05-07T03:17:36;13.00;99.90
17442;DHT22;8838;50.144;8.176;2023-05-07T03:20:04;13.00;99.90
17442;DHT22;8838;50.144;8.176;2023-05-07T03:22:31;13.10;99.90
17442;DHT22;8838;50.144;8.176;2023-05-07T03:25:00;13.10;99.90
17442;DHT22;8838;50.144;8.176;2023-05-07T03:27:26;13.00;99.90
17442;DHT22;8838;50.144;8.176;2023-05-07T03:29:53;13.00;99.90
17442;DHT22;8838;50.144;8.176;2023-05-07T03:32:20;12.90;99.90
17442;DHT22;8838;50.144;8.176;2023-05-07T03:34:47;12.90;99.90
17442;DHT22;8838;50.144;8.176;2023-05-07T03:37:13;13.00;99.90
17442;DHT22;8838;50.144;8.176;2023-05-07T03:39:40;13.00;99.90
17442;DHT22;8838;50.144;8.176;2023-05-07T03:42:08;13.00;99.90
17442;DHT22;8838;50.144;8.176;2023-05-07T03:44:35;13.00;99.90
17442;DHT22;8838;50.144;8.176;2023-05-07T03:47:02;13.00;99.90
17442;DHT22;8838;50.144;8.176;2023-05-07T03:49:29;13.00;99.90
17442;DHT22;8838;50.144;8.176;2023-05-07T03:51:56;13.00;99.90
17442;DHT22;8838;50.144;8.176;2023-05-07T03:54:23;13.00;99.90
17442;DHT22;8838;50.144;8.176;2023-05-07T03:56:49;13.00;99.90
17442;DHT22;8838;50.144;8.176;2023-05-07T03:59:17;13.10;99.90
17442;DHT22;8838;50.144;8.176;2023-05-07T04:01:44;13.00;99.90
17442;DHT22;8838;50.144;8.176;2023-05-07T04:04:11;13.00;99.90
17442;DHT22;8838;50.144;8.176;2023-05-07T04:06:39;12.90;99.90
17442;DHT22;8838;50.144;8.176;2023-05-07T04:09:06;12.90;99.90
17442;DHT22;8838;50.144;8.176;2023-05-07T04:11:34;13.00;99.90
17442;DHT22;8838;50.144;8.176;2023-05-07T04:14:01;13.00;99.90
17442;DHT22;8838;50.144;8.176;2023-05-07T04:16:29;13.00;99.90
17442;DHT22;8838;50.144;8.176;2023-05-07T04:18:55;13.00;99.90
17442;DHT22;8838;50.144;8.176;2023-05-07T04:21:22;13.00;99.90
17442;DHT22;8838;50.144;8.176;2023-05-07T04:23:49;13.00;99.90
17442;DHT22;8838;50.144;8.176;2023-05-07T04:26:16;12.90;99.90
17442;DHT22;8838;50.144;8.176;2023-05-07T04:28:43;13.00;99.90
17442;DHT22;8838;50.144;8.176;2023-05-07T04:31:10;12.90;99.90
17442;DHT22;8838;50.144;8.176;2023-05-07T04:33:38;12.90;99.90
17442;DHT22;8838;50.144;8.176;2023-05-07T04:36:05;13.00;99.90
17442;DHT22;8838;50.144;8.176;2023-05-07T04:38:32;13.00;99.90
17442;DHT22;8838;50.144;8.176;2023-05-07T04:41:03;13.00;99.90
17442;DHT22;8838;50.144;8.176;2023-05-07T04:43:30;13.00;99.90
17442;DHT22;8838;50.144;8.176;2023-05-07T04:45:57;13.00;99.90
17442;DHT22;8838;50.144;8.176;2023-05-07T04:48:24;13.00;99.90
17442;DHT22;8838;50.144;8.176;2023-05-07T04:50:53;12.90;99.90
17442;DHT22;8838;50.144;8.176;2023-05-07T04:53:20;12.90;99.90
17442;DHT22;8838;50.144;8.176;2023-05-07T04:55:47;12.90;99.90
17442;DHT22;8838;50.144;8.176;2023-05-07T04:58:13;12.90;99.90
17442;DHT22;8838;50.144;8.176;2023-05-07T05:00:41;12.90;99.90
17442;DHT22;8838;50.144;8.176;2023-05-07T05:03:09;13.00;99.90
17442;DHT22;8838;50.144;8.176;2023-05-07T05:05:36;13.10;99.90
17442;DHT22;8838;50.144;8.176;2023-05-07T05:08:04;13.10;99.90
17442;DHT22;8838;50.144;8.176;2023-05-07T05:10:31;13.10;99.90
17442;DHT22;8838;50.144;8.176;2023-05-07T05:12:58;13.20;99.90
17442;DHT22;8838;50.144;8.176;2023-05-07T05:15:25;13.20;99.90
17442;DHT22;8838;50.144;8.176;2023-05-07T05:17:52;13.20;99.90
17442;DHT22;8838;50.144;8.176;2023-05-07T05:20:18;13.30;99.90
17442;DHT22;8838;50.144;8.176;2023-05-07T05:22:45;13.30;99.90
17442;DHT22;8838;50.144;8.176;2023-05-07T05:25:13;13.30;99.90
17442;DHT22;8838;50.144;8.176;2023-05-07T05:27:40;13.30;99.90
17442;DHT22;8838;50.144;8.176;2023-05-07T05:30:08;13.40;99.90
17442;DHT22;8838;50.144;8.176;2023-05-07T05:32:34;13.40;99.90
17442;DHT22;8838;50.144;8.176;2023-05-07T05:35:04;13.50;99.90
17442;DHT22;8838;50.144;8.176;2023-05-07T05:37:31;13.60;99.90
17442;DHT22;8838;50.144;8.176;2023-05-07T05:39:58;13.70;99.90
17442;DHT22;8838;50.144;8.176;2023-05-07T05:42:26;13.70;99.90
17442;DHT22;8838;50.144;8.176;2023-05-07T05:44:52;13.80;99.90
17442;DHT22;8838;50.144;8.176;2023-05-07T05:47:19;13.90;99.90
17442;DHT22;8838;50.144;8.176;2023-05-07T05:49:46;13.90;99.90
17442;DHT22;8838;50.144;8.176;2023-05-07T05:52:13;14.00;99.90
17442;DHT22;8838;50.144;8.176;2023-05-07T05:54:40;14.10;99.90
17442;DHT22;8838;50.144;8.176;2023-05-07T05:57:06;14.10;99.90
17442;DHT22;8838;50.144;8.176;2023-05-07T05:59:35;14.20;99.90
17442;DHT22;8838;50.144;8.176;2023-05-07T06:02:01;14.30;99.90
17442;DHT22;8838;50.144;8.176;2023-05-07T06:04:28;14.40;99.90
17442;DHT22;8838;50.144;8.176;2023-05-07T06:06:55;14.40;99.90
17442;DHT22;8838;50.144;8.176;2023-05-07T06:09:22;14.50;99.90
17442;DHT22;8838;50.144;8.176;2023-05-07T06:11:49;14.70;99.90
17442;DHT22;8838;50.144;8.176;2023-05-07T06:14:16;14.80;99.90
17442;DHT22;8838;50.144;8.176;2023-05-07T06:16:44;15.00;99.90
17442;DHT22;8838;50.144;8.176;2023-05-07T06:19:13;15.20;99.90
17442;DHT22;8838;50.144;8.176;2023-05-07T06:21:40;15.50;99.90
17442;DHT22;8838;50.144;8.176;2023-05-07T06:24:07;15.70;99.90
17442;DHT22;8838;50.144;8.176;2023-05-07T06:26:34;15.90;99.90
17442;DHT22;8838;50.144;8.176;2023-05-07T06:29:01;16.10;99.90
17442;DHT22;8838;50.144;8.176;2023-05-07T06:31:30;16.20;99.90
17442;DHT22;8838;50.144;8.176;2023-05-07T06:33:58;16.40;99.90
17442;DHT22;8838;50.144;8.176;2023-05-07T06:36:27;16.50;99.90
17442;DHT22;8838;50.144;8.176;2023-05-07T06:38:54;16.50;99.90
17442;DHT22;8838;50.144;8.176;2023-05-07T06:41:21;16.60;99.90
17442;DHT22;8838;50.144;8.176;2023-05-07T06:43:48;16.70;99.90
17442;DHT22;8838;50.144;8.176;2023-05-07T06:46:15;16.90;99.90
17442;DHT22;8838;50.144;8.176;2023-05-07T06:48:42;17.00;99.90
17442;DHT22;8838;50.144;8.176;2023-05-07T06:51:10;17.20;99.90
17442;DHT22;8838;50.144;8.176;2023-05-07T06:53:36;17.30;99.90
17442;DHT22;8838;50.144;8.176;2023-05-07T06:56:05;17.50;99.90
17442;DHT22;8838;50.144;8.176;2023-05-07T06:58:32;17.50;99.90
17442;DHT22;8838;50.144;8.176;2023-05-07T07:00:59;17.60;99.90
17442;DHT22;8838;50.144;8.176;2023-05-07T07:03:25;17.70;99.90
17442;DHT22;8838;50.144;8.176;2023-05-07T07:05:52;17.60;99.90
17442;DHT22;8838;50.144;8.176;2023-05-07T07:08:21;17.50;99.90
17442;DHT22;8838;50.144;8.176;2023-05-07T07:10:48;17.40;99.90
17442;DHT22;8838;50.144;8.176;2023-05-07T07:13:14;17.40;99.90
17442;DHT22;8838;50.144;8.176;2023-05-07T07:15:41;17.50;99.90
17442;DHT22;8838;50.144;8.176;2023-05-07T07:18:08;17.60;99.90
17442;DHT22;8838;50.144;8.176;2023-05-07T07:20:35;17.80;99.90
17442;DHT22;8838;50.144;8.176;2023-05-07T07:23:02;17.80;99.90
17442;DHT22;8838;50.144;8.176;2023-05-07T07:25:30;17.80;99.90
17442;DHT22;8838;50.144;8.176;2023-05-07T07:27:57;17.70;99.90
17442;DHT22;8838;50.144;8.176;2023-05-07T07:30:25;17.80;99.90
17442;DHT22;8838;50.144;8.176;2023-05-07T07:32:52;17.90;99.90
17442;DHT22;8838;50.144;8.176;2023-05-07T07:35:20;17.90;99.90
17442;DHT22;8838;50.144;8.176;2023-05-07T07:37:48;17.90;99.90
17442;DHT22;8838;50.144;8.176;2023-05-07T07:40:15;18.00;99.90
17442;DHT22;8838;50.144;8.176;2023-05-07T07:42:43;17.90;99.90
17442;DHT22;8838;50.144;8.176;2023-05-07T07:45:10;17.60;99.90
17442;DHT22;8838;50.144;8.176;2023-05-07T07:47:37;17.50;99.90
17442;DHT22;8838;50.144;8.176;2023-05-07T07:50:05;17.50;99.90
17442;DHT22;8838;50.144;8.176;2023-05-07T07:52:32;17.50;99.90
17442;DHT22;8838;50.144;8.176;2023-05-07T07:54:59;17.50;99.90
17442;DHT22;8838;50.144;8.176;2023-05-07T07:57:26;17.50;99.90
17442;DHT22;8838;50.144;8.176;2023-05-07T07:59:54;17.50;99.90
17442;DHT22;8838;50.144;8.176;2023-05-07T08:02:21;17.40;99.90
17442;DHT22;8838;50.144;8.176;2023-05-07T08:04:47;17.40;99.90
17442;DHT22;8838;50.144;8.176;2023-05-07T08:07:14;17.50;99.90
17442;DHT22;8838;50.144;8.176;2023-05-07T08:09:43;17.50;99.90
17442;DHT22;8838;50.144;8.176;2023-05-07T08:12:10;17.60;99.90
17442;DHT22;8838;50.144;8.176;2023-05-07T08:14:37;17.60;99.90
17442;DHT22;8838;50.144;8.176;2023-05-07T08:17:05;17.70;99.90
17442;DHT22;8838;50.144;8.176;2023-05-07T08:19:32;17.80;99.90
17442;DHT22;8838;50.144;8.176;2023-05-07T08:22:02;18.00;99.90
17442;DHT22;8838;50.144;8.176;2023-05-07T08:24:29;18.10;99.90
17442;DHT22;8838;50.144;8.176;2023-05-07T08:26:56;18.20;99.90
17442;DHT22;8838;50.144;8.176;2023-05-07T08:29:25;18.20;99.90
17442;DHT22;8838;50.144;8.176;2023-05-07T08:31:52;18.30;99.90
17442;DHT22;8838;50.144;8.176;2023-05-07T08:34:21;18.40;99.90
17442;DHT22;8838;50.144;8.176;2023-05-07T08:36:51;18.60;99.90
17442;DHT22;8838;50.144;8.176;2023-05-07T08:39:18;18.70;99.90
17442;DHT22;8838;50.144;8.176;2023-05-07T08:41:45;18.90;99.90
17442;DHT22;8838;50.144;8.176;2023-05-07T08:44:13;19.00;99.90
17442;DHT22;8838;50.144;8.176;2023-05-07T08:46:43;19.00;99.90
17442;DHT22;8838;50.144;8.176;2023-05-07T08:49:13;19.30;99.90
17442;DHT22;8838;50.144;8.176;2023-05-07T08:51:42;20.00;99.90
17442;DHT22;8838;50.144;8.176;2023-05-07T08:54:10;20.40;99.90
17442;DHT22;8838;50.144;8.176;2023-05-07T08:56:38;21.10;99.90
17442;DHT22;8838;50.144;8.176;2023-05-07T08:59:06;21.90;99.90
17442;DHT22;8838;50.144;8.176;2023-05-07T09:01:35;22.10;99.90
17442;DHT22;8838;50.144;8.176;2023-05-07T09:04:02;22.40;99.90
17442;DHT22;8838;50.144;8.176;2023-05-07T09:06:29;22.70;99.90
17442;DHT22;8838;50.144;8.176;2023-05-07T09:08:58;22.70;99.90
17442;DHT22;8838;50.144;8.176;2023-05-07T09:11:26;22.60;99.90
17442;DHT22;8838;50.144;8.176;2023-05-07T09:13:54;22.70;99.90
17442;DHT22;8838;50.144;8.176;2023-05-07T09:16:22;22.50;99.90
17442;DHT22;8838;50.144;8.176;2023-05-07T09:18:51;22.50;99.90
17442;DHT22;8838;50.144;8.176;2023-05-07T09:21:20;22.50;99.90
17442;DHT22;8838;50.144;8.176;2023-05-07T09:23:48;22.60;99.90
17442;DHT22;8838;50.144;8.176;2023-05-07T09:26:21;22.60;99.90
17442;DHT22;8838;50.144;8.176;2023-05-07T09:28:48;22.60;99.90
17442;DHT22;8838;50.144;8.176;2023-05-07T09:31:15;22.70;99.90
17442;DHT22;8838;50.144;8.176;2023-05-07T09:33:42;23.10;99.90
17442;DHT22;8838;50.144;8.176;2023-05-07T09:36:09;23.30;99.90
17442;DHT22;8838;50.144;8.176;2023-05-07T09:38:37;23.50;99.90
17442;DHT22;8838;50.144;8.176;2023-05-07T09:41:06;23.80;99.90
17442;DHT22;8838;50.144;8.176;2023-05-07T09:43:35;23.50;99.90
17442;DHT22;8838;50.144;8.176;2023-05-07T09:46:07;23.40;99.90
17442;DHT22;8838;50.144;8.176;2023-05-07T09:48:37;23.30;99.90
17442;DHT22;8838;50.144;8.176;2023-05-07T09:51:11;23.20;99.90
17442;DHT22;8838;50.144;8.176;2023-05-07T09:53:43;23.60;99.90
17442;DHT22;8838;50.144;8.176;2023-05-07T09:56:13;24.00;99.90
17442;DHT22;8838;50.144;8.176;2023-05-07T09:58:42;24.10;99.90
17442;DHT22;8838;50.144;8.176;2023-05-07T10:01:11;24.00;99.90
17442;DHT22;8838;50.144;8.176;2023-05-07T10:03:39;23.40;99.90
17442;DHT22;8838;50.144;8.176;2023-05-07T10:06:08;23.30;99.90
17442;DHT22;8838;50.144;8.176;2023-05-07T10:08:35;23.10;99.90
17442;DHT22;8838;50.144;8.176;2023-05-07T10:11:04;23.60;99.90
17442;DHT22;8838;50.144;8.176;2023-05-07T10:13:33;23.90;99.90
17442;DHT22;8838;50.144;8.176;2023-05-07T10:16:05;24.00;99.90
17442;DHT22;8838;50.144;8.176;2023-05-07T10:18:33;24.20;99.90
17442;DHT22;8838;50.144;8.176;2023-05-07T10:21:04;24.50;99.90
17442;DHT22;8838;50.144;8.176;2023-05-07T10:23:33;24.90;99.90
17442;DHT22;8838;50.144;8.176;2023-05-07T10:26:03;24.70;99.90
17442;DHT22;8838;50.144;8.176;2023-05-07T10:28:34;24.60;99.90
17442;DHT22;8838;50.144;8.176;2023-05-07T10:31:15;24.50;99.90
17442;DHT22;8838;50.144;8.176;2023-05-07T10:33:46;24.30;99.90
17442;DHT22;8838;50.144;8.176;2023-05-07T10:36:16;24.00;99.90
17442;DHT22;8838;50.144;8.176;2023-05-07T10:38:43;24.40;99.90
17442;DHT22;8838;50.144;8.176;2023-05-07T10:41:12;24.40;99.90
17442;DHT22;8838;50.144;8.176;2023-05-07T10:43:40;23.70;99.90
17442;DHT22;8838;50.144;8.176;2023-05-07T10:46:15;23.10;99.90
17442;DHT22;8838;50.144;8.176;2023-05-07T10:49:07;22.90;99.90
17442;DHT22;8838;50.144;8.176;2023-05-07T10:51:35;22.70;99.90
17442;DHT22;8838;50.144;8.176;2023-05-07T10:54:19;22.90;99.90
17442;DHT22;8838;50.144;8.176;2023-05-07T10:56:46;23.10;99.90
17442;DHT22;8838;50.144;8.176;2023-05-07T10:59:35;23.50;99.90
17442;DHT22;8838;50.144;8.176;2023-05-07T11:02:09;23.60;99.90
17442;DHT22;8838;50.144;8.176;2023-05-07T11:04:39;24.10;99.90
17442;DHT22;8838;50.144;8.176;2023-05-07T11:07:28;24.50;99.90
17442;DHT22;8838;50.144;8.176;2023-05-07T11:10:00;24.40;99.90
17442;DHT22;8838;50.144;8.176;2023-05-07T11:12:54;24.40;99.90
17442;DHT22;8838;50.144;8.176;2023-05-07T11:15:38;24.20;99.90
17442;DHT22;8838;50.144;8.176;2023-05-07T11:18:09;23.90;99.90
17442;DHT22;8838;50.144;8.176;2023-05-07T11:20:56;23.80;99.90
17442;DHT22;8838;50.144;8.176;2023-05-07T11:26:44;23.60;99.90
17442;DHT22;8838;50.144;8.176;2023-05-07T11:29:13;23.30;99.90
17442;DHT22;8838;50.144;8.176;2023-05-07T11:31:43;23.50;99.90
17442;DHT22;8838;50.144;8.176;2023-05-07T11:34:12;23.50;99.90
17442;DHT22;8838;50.144;8.176;2023-05-07T11:36:43;23.20;99.90
17442;DHT22;8838;50.144;8.176;2023-05-07T11:39:29;23.20;99.90
17442;DHT22;8838;50.144;8.176;2023-05-07T11:41:57;23.30;99.90
17442;DHT22;8838;50.144;8.176;2023-05-07T11:44:24;23.40;99.90
17442;DHT22;8838;50.144;8.176;2023-05-07T11:46:50;23.30;99.90
17442;DHT22;8838;50.144;8.176;2023-05-07T11:49:19;23.40;99.90
17442;DHT22;8838;50.144;8.176;2023-05-07T11:51:46;23.70;99.90
17442;DHT22;8838;50.144;8.176;2023-05-07T11:54:16;23.90;99.90
17442;DHT22;8838;50.144;8.176;2023-05-07T11:56:44;24.00;99.90
17442;DHT22;8838;50.144;8.176;2023-05-07T11:59:17;23.80;99.90
17442;DHT22;8838;50.144;8.176;2023-05-07T12:01:45;23.50;99.90
17442;DHT22;8838;50.144;8.176;2023-05-07T12:04:13;23.30;99.90
17442;DHT22;8838;50.144;8.176;2023-05-07T12:06:41;23.30;99.90
17442;DHT22;8838;50.144;8.176;2023-05-07T12:09:08;23.20;99.90
17442;DHT22;8838;50.144;8.176;2023-05-07T12:11:37;23.30;99.90
17442;DHT22;8838;50.144;8.176;2023-05-07T12:14:06;23.30;99.90
17442;DHT22;8838;50.144;8.176;2023-05-07T12:16:33;23.40;99.90
17442;DHT22;8838;50.144;8.176;2023-05-07T12:19:01;23.50;99.90
17442;DHT22;8838;50.144;8.176;2023-05-07T12:21:28;23.50;99.90
17442;DHT22;8838;50.144;8.176;2023-05-07T12:23:57;23.60;99.90
17442;DHT22;8838;50.144;8.176;2023-05-07T12:26:25;23.70;99.90
17442;DHT22;8838;50.144;8.176;2023-05-07T12:28:52;23.80;99.90
17442;DHT22;8838;50.144;8.176;2023-05-07T12:31:19;23.50;99.90
17442;DHT22;8838;50.144;8.176;2023-05-07T12:33:46;23.20;99.90
17442;DHT22;8838;50.144;8.176;2023-05-07T12:36:13;23.30;99.90
17442;DHT22;8838;50.144;8.176;2023-05-07T12:38:40;23.00;99.90
17442;DHT22;8838;50.144;8.176;2023-05-07T12:41:10;23.30;99.90
17442;DHT22;8838;50.144;8.176;2023-05-07T12:43:37;23.20;99.90
17442;DHT22;8838;50.144;8.176;2023-05-07T12:46:06;23.00;99.90
17442;DHT22;8838;50.144;8.176;2023-05-07T12:48:35;23.00;99.90
17442;DHT22;8838;50.144;8.176;2023-05-07T12:51:03;23.00;99.90
17442;DHT22;8838;50.144;8.176;2023-05-07T12:53:31;22.80;99.90
17442;DHT22;8838;50.144;8.176;2023-05-07T12:55:59;22.80;99.90
17442;DHT22;8838;50.144;8.176;2023-05-07T12:58:29;23.10;99.90
17442;DHT22;8838;50.144;8.176;2023-05-07T13:00:58;23.10;99.90
17442;DHT22;8838;50.144;8.176;2023-05-07T13:03:28;23.00;99.90
17442;DHT22;8838;50.144;8.176;2023-05-07T13:05:58;22.90;99.90
17442;DHT22;8838;50.144;8.176;2023-05-07T13:08:26;23.30;99.90
17442;DHT22;8838;50.144;8.176;2023-05-07T13:10:54;23.50;99.90
17442;DHT22;8838;50.144;8.176;2023-05-07T13:13:21;23.60;99.90
17442;DHT22;8838;50.144;8.176;2023-05-07T13:15:49;23.60;99.90
17442;DHT22;8838;50.144;8.176;2023-05-07T13:18:16;23.50;99.90
17442;DHT22;8838;50.144;8.176;2023-05-07T13:20:43;23.30;99.90
17442;DHT22;8838;50.144;8.176;2023-05-07T13:23:10;23.10;99.90
17442;DHT22;8838;50.144;8.176;2023-05-07T13:25:37;22.70;99.90
17442;DHT22;8838;50.144;8.176;2023-05-07T13:28:04;22.70;99.90
17442;DHT22;8838;50.144;8.176;2023-05-07T13:30:31;22.70;99.90
17442;DHT22;8838;50.144;8.176;2023-05-07T13:32:59;22.80;99.90
17442;DHT22;8838;50.144;8.176;2023-05-07T13:35:26;22.90;99.90
17442;DHT22;8838;50.144;8.176;2023-05-07T13:37:53;23.00;99.90
17442;DHT22;8838;50.144;8.176;2023-05-07T13:40:21;23.00;99.90
17442;DHT22;8838;50.144;8.176;2023-05-07T13:42:48;23.20;99.90
17442;DHT22;8838;50.144;8.176;2023-05-07T13:45:16;23.30;99.90
17442;DHT22;8838;50.144;8.176;2023-05-07T13:47:43;23.40;99.90
17442;DHT22;8838;50.144;8.176;2023-05-07T13:50:12;23.50;99.90
17442;DHT22;8838;50.144;8.176;2023-05-07T13:52:41;23.50;99.90
17442;DHT22;8838;50.144;8.176;2023-05-07T13:55:08;23.60;99.90
17442;DHT22;8838;50.144;8.176;2023-05-07T13:57:35;23.80;99.90
17442;DHT22;8838;50.144;8.176;2023-05-07T14:00:03;23.50;99.90
17442;DHT22;8838;50.144;8.176;2023-05-07T14:02:30;23.30;99.90
17442;DHT22;8838;50.144;8.176;2023-05-07T14:04:57;23.10;99.90
17442;DHT22;8838;50.144;8.176;2023-05-07T14:07:25;23.10;99.90
17442;DHT22;8838;50.144;8.176;2023-05-07T14:09:52;23.20;99.90
17442;DHT22;8838;50.144;8.176;2023-05-07T14:12:19;23.10;99.90
17442;DHT22;8838;50.144;8.176;2023-05-07T14:14:46;23.00;99.90
17442;DHT22;8838;50.144;8.176;2023-05-07T14:17:15;22.80;99.90
17442;DHT22;8838;50.144;8.176;2023-05-07T14:19:42;22.70;99.90
17442;DHT22;8838;50.144;8.176;2023-05-07T14:22:09;22.70;99.90
17442;DHT22;8838;50.144;8.176;2023-05-07T14:24:39;22.80;99.90
17442;DHT22;8838;50.144;8.176;2023-05-07T14:27:06;22.90;99.90
17442;DHT22;8838;50.144;8.176;2023-05-07T14:29:33;22.80;99.90
17442;DHT22;8838;50.144;8.176;2023-05-07T14:32:01;22.70;99.90
17442;DHT22;8838;50.144;8.176;2023-05-07T14:34:28;22.50;99.90
17442;DHT22;8838;50.144;8.176;2023-05-07T14:36:55;22.50;99.90
17442;DHT22;8838;50.144;8.176;2023-05-07T14:39:22;22.60;99.90
17442;DHT22;8838;50.144;8.176;2023-05-07T14:41:51;22.90;99.90
17442;DHT22;8838;50.144;8.176;2023-05-07T14:44:20;23.10;99.90
17442;DHT22;8838;50.144;8.176;2023-05-07T14:46:46;23.20;99.90
17442;DHT22;8838;50.144;8.176;2023-05-07T14:49:14;23.10;99.90
17442;DHT22;8838;50.144;8.176;2023-05-07T14:51:42;23.00;99.90
17442;DHT22;8838;50.144;8.176;2023-05-07T14:54:09;22.80;99.90
17442;DHT22;8838;50.144;8.176;2023-05-07T14:56:36;22.80;99.90
17442;DHT22;8838;50.144;8.176;2023-05-07T14:59:04;22.80;99.90
17442;DHT22;8838;50.144;8.176;2023-05-07T15:01:31;22.80;99.90
17442;DHT22;8838;50.144;8.176;2023-05-07T15:03:58;22.60;99.90
17442;DHT22;8838;50.144;8.176;2023-05-07T15:06:25;22.60;99.90
17442;DHT22;8838;50.144;8.176;2023-05-07T15:08:53;22.50;99.90
17442;DHT22;8838;50.144;8.176;2023-05-07T15:11:20;22.30;99.90
17442;DHT22;8838;50.144;8.176;2023-05-07T15:13:46;22.30;99.90
17442;DHT22;8838;50.144;8.176;2023-05-07T15:16:15;22.10;99.90
17442;DHT22;8838;50.144;8.176;2023-05-07T15:18:42;22.00;99.90
17442;DHT22;8838;50.144;8.176;2023-05-07T15:21:09;22.20;99.90
17442;DHT22;8838;50.144;8.176;2023-05-07T15:23:36;22.30;99.90
17442;DHT22;8838;50.144;8.176;2023-05-07T15:26:04;22.50;99.90
17442;DHT22;8838;50.144;8.176;2023-05-07T15:28:33;22.60;99.90
17442;DHT22;8838;50.144;8.176;2023-05-07T15:31:00;22.70;99.90
17442;DHT22;8838;50.144;8.176;2023-05-07T15:33:28;22.80;99.90
17442;DHT22;8838;50.144;8.176;2023-05-07T15:35:55;22.80;99.90
17442;DHT22;8838;50.144;8.176;2023-05-07T15:38:24;22.70;99.90
17442;DHT22;8838;50.144;8.176;2023-05-07T15:40:51;22.50;99.90
17442;DHT22;8838;50.144;8.176;2023-05-07T15:43:18;22.40;99.90
17442;DHT22;8838;50.144;8.176;2023-05-07T15:45:44;22.40;99.90
17442;DHT22;8838;50.144;8.176;2023-05-07T15:48:11;22.30;99.90
17442;DHT22;8838;50.144;8.176;2023-05-07T15:50:39;22.20;99.90
17442;DHT22;8838;50.144;8.176;2023-05-07T15:53:06;22.20;99.90